Time;durP1;ratioP1;P1;durP2;ratioP2;P2;SDS_P1;SDS_P2;PMS_P1;PMS_P2;Temp;Humidity;BMP_temperature;BMP_pressure;BME280_temperature;BME280_humidity;BME280_pressure;Samples;Min_cycle;Max_cycle;Signal;HPM_P1;HPM_P2
2023/09/10 00:01:05;;;;;;;;;;;20.90;99.90;;;;;;15699467;22;19927;-35
2023/09/10 00:07:08;;;;;;;;;;;20.80;99.90;;;;;;15670824;22;19923;-34
2023/09/10 00:13:10;;;;;;;;;;;20.80;99.90;;;;;;15696644;22;19922;-35
2023/09/10 00:19:12;;;;;;;;;;;20.60;99.90;;;;;;15691539;22;20348;-35
2023/09/10 00:25:13;;;;;;;;;;;20.50;99.90;;;;;;15698761;22;19981;-35
2023/09/10 00:31:15;;;;;;;;;;;20.40;99.90;;;;;;15693122;22;20443;-34
2023/09/10 00:37:17;;;;;;;;;;;20.20;99.90;;;;;;15698532;22;19954;-34
2023/09/10 00:43:19;;;;;;;;;;;19.80;99.90;;;;;;15697639;22;20388;-34
2023/09/10 00:49:21;;;;;;;;;;;19.80;99.90;;;;;;15702192;22;19996;-34
2023/09/10 00:55:23;;;;;;;;;;;19.80;99.90;;;;;;15702856;22;20013;-34
2023/09/10 01:01:25;;;;;;;;;;;19.70;99.90;;;;;;15674002;22;20348;-34
2023/09/10 01:07:27;;;;;;;;;;;19.60;99.90;;;;;;15702807;22;19919;-35
2023/09/10 01:13:44;;;;;;;;;;;19.60;99.90;;;;;;15672349;22;20041;-34
2023/09/10 01:19:46;;;;;;;;;;;19.50;99.90;;;;;;15702155;22;19934;-34
2023/09/10 01:25:47;;;;;;;;;;;19.70;99.90;;;;;;15690527;22;19926;-34
2023/09/10 01:31:57;;;;;;;;;;;19.80;99.90;;;;;;15704329;22;19930;-35
2023/09/10 01:38:01;;;;;;;;;;;19.80;99.90;;;;;;15698185;22;19972;-34
2023/09/10 01:44:04;;;;;;;;;;;19.80;99.90;;;;;;15695272;22;19923;-34
2023/09/10 01:50:06;;;;;;;;;;;19.80;99.90;;;;;;15695933;22;20340;-34
2023/09/10 01:56:08;;;;;;;;;;;19.30;99.90;;;;;;15626818;22;20308;-34
2023/09/10 02:02:10;;;;;;;;;;;19.00;99.90;;;;;;15629089;22;19973;-34
2023/09/10 02:08:14;;;;;;;;;;;18.90;99.90;;;;;;15630579;22;19919;-35
2023/09/10 02:14:17;;;;;;;;;;;18.70;99.90;;;;;;15629589;22;19923;-34
2023/09/10 02:20:18;;;;;;;;;;;18.60;99.90;;;;;;15629922;22;19998;-34
2023/09/10 02:26:20;;;;;;;;;;;18.60;99.90;;;;;;15619284;22;19947;-34
2023/09/10 02:32:23;;;;;;;;;;;18.80;99.90;;;;;;15626724;22;19994;-34
2023/09/10 02:38:27;;;;;;;;;;;18.70;99.90;;;;;;15609309;22;19929;-36
2023/09/10 02:44:28;;;;;;;;;;;18.70;99.90;;;;;;15626133;22;19930;-35
2023/09/10 02:50:30;;;;;;;;;;;18.60;99.90;;;;;;15624768;22;19962;-35
2023/09/10 02:56:32;;;;;;;;;;;18.60;99.90;;;;;;15628668;22;19930;-35
2023/09/10 03:02:34;;;;;;;;;;;18.60;99.90;;;;;;15622443;22;20360;-35
2023/09/10 03:08:36;;;;;;;;;;;18.60;99.90;;;;;;15621539;22;20343;-35
2023/09/10 03:14:38;;;;;;;;;;;18.70;99.90;;;;;;15629331;22;20085;-35
2023/09/10 03:20:40;;;;;;;;;;;18.70;99.90;;;;;;15624363;22;20372;-34
2023/09/10 03:26:42;;;;;;;;;;;18.80;99.90;;;;;;15618043;22;20029;-34
2023/09/10 03:32:44;;;;;;;;;;;18.90;99.90;;;;;;15618955;22;20294;-34
2023/09/10 03:38:46;;;;;;;;;;;19.00;99.90;;;;;;15624312;22;19938;-35
2023/09/10 03:44:47;;;;;;;;;;;19.00;99.90;;;;;;15617395;22;20044;-35
2023/09/10 03:50:49;;;;;;;;;;;18.80;99.90;;;;;;15624784;22;20333;-34
2023/09/10 03:56:51;;;;;;;;;;;18.70;99.90;;;;;;15696199;22;19949;-36
2023/09/10 04:02:52;;;;;;;;;;;18.70;99.90;;;;;;15703673;22;19923;-35
2023/09/10 04:08:54;;;;;;;;;;;18.60;99.90;;;;;;15698764;22;19922;-35
2023/09/10 04:14:56;;;;;;;;;;;18.60;99.90;;;;;;15703093;22;20061;-34
2023/09/10 04:20:58;;;;;;;;;;;18.50;99.90;;;;;;15703961;22;19925;-35
2023/09/10 04:27:00;;;;;;;;;;;18.60;99.90;;;;;;15701275;22;19962;-34
2023/09/10 04:33:02;;;;;;;;;;;18.70;99.90;;;;;;15699631;22;20025;-35
2023/09/10 04:39:09;;;;;;;;;;;18.50;99.90;;;;;;15697418;22;19923;-35
2023/09/10 04:45:11;;;;;;;;;;;18.50;99.90;;;;;;15701905;22;19918;-34
2023/09/10 04:51:12;;;;;;;;;;;18.60;99.90;;;;;;15697942;22;19922;-34
2023/09/10 04:57:14;;;;;;;;;;;18.60;99.90;;;;;;15701866;22;20384;-37
2023/09/10 05:03:16;;;;;;;;;;;18.60;99.90;;;;;;15663770;22;19927;-35
2023/09/10 05:09:18;;;;;;;;;;;18.50;99.90;;;;;;15671861;22;19934;-34
2023/09/10 05:15:22;;;;;;;;;;;18.50;99.90;;;;;;15701002;22;20331;-35
2023/09/10 05:21:24;;;;;;;;;;;18.50;99.90;;;;;;15698641;22;19922;-35
2023/09/10 05:27:28;;;;;;;;;;;18.30;99.90;;;;;;15671809;22;20380;-35
2023/09/10 05:33:30;;;;;;;;;;;18.00;99.90;;;;;;15691873;22;19929;-35
2023/09/10 05:39:31;;;;;;;;;;;17.90;99.90;;;;;;15699780;22;19923;-34
2023/09/10 05:45:34;;;;;;;;;;;18.10;99.90;;;;;;15701179;22;20470;-34
2023/09/10 05:51:35;;;;;;;;;;;18.20;99.90;;;;;;15699379;22;20268;-35
2023/09/10 05:57:37;;;;;;;;;;;18.40;99.90;;;;;;15701501;22;19926;-34
2023/09/10 06:03:39;;;;;;;;;;;18.60;99.90;;;;;;15697222;22;19926;-35
2023/09/10 06:09:41;;;;;;;;;;;18.40;99.90;;;;;;15703883;22;19922;-35
2023/09/10 06:15:44;;;;;;;;;;;18.50;99.90;;;;;;15689741;22;19923;-36
2023/09/10 06:21:45;;;;;;;;;;;18.60;99.90;;;;;;15671015;22;20289;-35
2023/09/10 06:27:47;;;;;;;;;;;18.90;99.90;;;;;;15695113;22;20384;-37
2023/09/10 06:33:49;;;;;;;;;;;18.90;99.90;;;;;;15679116;22;20806;-37
2023/09/10 06:39:51;;;;;;;;;;;18.80;99.90;;;;;;15703210;22;19923;-35
2023/09/10 06:45:54;;;;;;;;;;;19.00;99.90;;;;;;15703270;22;20341;-36
2023/09/10 06:51:56;;;;;;;;;;;19.20;99.90;;;;;;15672002;22;19965;-35
2023/09/10 06:57:58;;;;;;;;;;;19.00;99.90;;;;;;15701602;22;19922;-35
2023/09/10 07:04:00;;;;;;;;;;;19.00;99.90;;;;;;15703584;22;19993;-35
2023/09/10 07:10:02;;;;;;;;;;;19.20;99.90;;;;;;15690927;22;20382;-35
2023/09/10 07:16:05;;;;;;;;;;;19.20;99.90;;;;;;15696400;22;19922;-35
2023/09/10 07:22:07;;;;;;;;;;;19.30;99.90;;;;;;15690217;22;19933;-35
2023/09/10 07:28:09;;;;;;;;;;;19.50;99.90;;;;;;15691356;22;19922;-35
2023/09/10 07:34:11;;;;;;;;;;;19.50;99.90;;;;;;15704099;22;19922;-35
2023/09/10 07:40:14;;;;;;;;;;;19.90;99.90;;;;;;15698357;22;19930;-35
2023/09/10 07:46:16;;;;;;;;;;;20.10;99.90;;;;;;15703661;22;19922;-35
2023/09/10 07:52:18;;;;;;;;;;;20.00;99.90;;;;;;15691144;22;19927;-35
2023/09/10 07:58:19;;;;;;;;;;;20.20;99.90;;;;;;15667828;22;19922;-36
2023/09/10 08:04:22;;;;;;;;;;;20.40;99.90;;;;;;15695193;22;19923;-35
2023/09/10 08:10:23;;;;;;;;;;;20.60;99.90;;;;;;15698151;22;19922;-34
2023/09/10 08:16:25;;;;;;;;;;;20.60;99.90;;;;;;15692773;22;19960;-35
2023/09/10 08:22:27;;;;;;;;;;;20.70;99.90;;;;;;15691847;22;20128;-36
2023/09/10 08:28:29;;;;;;;;;;;21.00;99.90;;;;;;15700438;22;19933;-35
2023/09/10 08:34:30;;;;;;;;;;;21.20;99.90;;;;;;15701526;22;19957;-37
2023/09/10 08:40:32;;;;;;;;;;;21.20;99.90;;;;;;15698841;22;20415;-35
2023/09/10 08:46:35;;;;;;;;;;;21.40;99.90;;;;;;15672429;22;20013;-35
2023/09/10 08:52:38;;;;;;;;;;;21.80;99.90;;;;;;15698309;22;20423;-35
2023/09/10 08:58:41;;;;;;;;;;;21.90;99.90;;;;;;15699679;22;19923;-35
2023/09/10 09:04:44;;;;;;;;;;;22.20;99.90;;;;;;15695112;22;20363;-35
2023/09/10 09:10:46;;;;;;;;;;;22.60;99.90;;;;;;15694011;22;20268;-35
2023/09/10 09:16:50;;;;;;;;;;;22.90;99.90;;;;;;15691311;22;19937;-34
2023/09/10 09:22:55;;;;;;;;;;;23.20;99.90;;;;;;15673960;22;19971;-35
2023/09/10 09:28:57;;;;;;;;;;;23.40;99.90;;;;;;15695175;22;19927;-36
2023/09/10 09:34:59;;;;;;;;;;;23.70;99.90;;;;;;15688753;22;20316;-35
2023/09/10 09:41:01;;;;;;;;;;;23.90;99.90;;;;;;15660390;22;20383;-37
2023/09/10 09:47:04;;;;;;;;;;;24.20;99.90;;;;;;15665515;22;19922;-35
2023/09/10 09:53:05;;;;;;;;;;;24.40;99.90;;;;;;15699277;22;19918;-35
2023/09/10 09:59:07;;;;;;;;;;;24.70;99.90;;;;;;15687237;22;19997;-35
2023/09/10 10:05:09;;;;;;;;;;;25.00;99.90;;;;;;15668375;22;20008;-35
2023/09/10 10:11:11;;;;;;;;;;;25.50;99.90;;;;;;15693551;22;20340;-35
2023/09/10 10:17:14;;;;;;;;;;;25.60;99.90;;;;;;15672143;22;20121;-35
2023/09/10 10:23:19;;;;;;;;;;;25.90;99.90;;;;;;15702310;22;19922;-36
2023/09/10 10:29:28;;;;;;;;;;;25.80;99.90;;;;;;15695875;22;20131;-36
2023/09/10 10:35:34;;;;;;;;;;;26.20;99.90;;;;;;15673237;22;19950;-36
2023/09/10 10:41:43;;;;;;;;;;;26.40;99.90;;;;;;15690542;22;19923;-38
2023/09/10 10:47:46;;;;;;;;;;;26.80;99.90;;;;;;15702079;22;20009;-35
2023/09/10 10:53:48;;;;;;;;;;;27.10;99.90;;;;;;15683191;22;19933;-36
2023/09/10 10:59:50;;;;;;;;;;;26.60;99.90;;;;;;15687864;22;19934;-36
2023/09/10 11:06:14;;;;;;;;;;;26.40;99.90;;;;;;15664029;22;19923;-35
2023/09/10 11:12:14;;;;;;;;;;;26.90;99.90;;;;;;15698656;22;20240;-36
2023/09/10 11:31:55;;;;;;;;;;;26.60;99.90;;;;;;15373548;22;20351;-82
2023/09/10 11:37:58;;;;;;;;;;;27.30;99.90;;;;;;15516546;22;19930;-83
2023/09/10 11:44:00;;;;;;;;;;;27.10;99.90;;;;;;15509797;22;20362;-85
2023/09/10 11:50:03;;;;;;;;;;;27.30;99.90;;;;;;15490564;22;19980;-85
2023/09/10 11:56:05;;;;;;;;;;;27.30;99.90;;;;;;15529210;22;20006;-84
2023/09/10 12:02:08;;;;;;;;;;;27.10;99.90;;;;;;15531158;22;19927;-85
2023/09/10 12:08:10;;;;;;;;;;;27.40;99.90;;;;;;15530043;22;19927;-84
2023/09/10 12:14:12;;;;;;;;;;;27.60;99.90;;;;;;15531632;22;20118;-82
2023/09/10 12:20:14;;;;;;;;;;;27.50;99.90;;;;;;15524821;22;19923;-83
2023/09/10 12:26:19;;;;;;;;;;;27.60;99.90;;;;;;15529241;22;19923;-83
2023/09/10 12:32:21;;;;;;;;;;;27.40;99.90;;;;;;15598111;22;19923;-85
2023/09/10 12:38:27;;;;;;;;;;;27.70;99.90;;;;;;15589447;22;19930;-82
2023/09/10 12:44:30;;;;;;;;;;;27.10;99.90;;;;;;15607125;22;20362;-84
2023/09/10 12:50:33;;;;;;;;;;;27.50;99.90;;;;;;15600724;22;20349;-83
2023/09/10 12:56:38;;;;;;;;;;;27.70;99.90;;;;;;15591350;22;20272;-83
2023/09/10 13:02:42;;;;;;;;;;;28.00;99.90;;;;;;15584329;22;19934;-83
2023/09/10 13:08:44;;;;;;;;;;;27.80;99.90;;;;;;15593009;22;19923;-83
2023/09/10 13:14:46;;;;;;;;;;;27.70;99.90;;;;;;15597648;22;19923;-82
2023/09/10 13:20:49;;;;;;;;;;;27.90;99.90;;;;;;15600420;22;19922;-82
2023/09/10 13:26:51;;;;;;;;;;;27.90;99.90;;;;;;15602526;22;19923;-81
2023/09/10 13:32:53;;;;;;;;;;;28.10;99.90;;;;;;15592849;22;20940;-84
2023/09/10 13:38:56;;;;;;;;;;;28.30;99.90;;;;;;15595542;22;19918;-82
2023/09/10 13:44:57;;;;;;;;;;;28.40;99.90;;;;;;15606711;22;19923;-82
2023/09/10 13:50:59;;;;;;;;;;;28.30;99.90;;;;;;15631977;22;19927;-83
2023/09/10 13:57:01;;;;;;;;;;;27.60;99.90;;;;;;15604714;22;19934;-82
2023/09/10 14:03:03;;;;;;;;;;;27.40;99.90;;;;;;15599924;22;19945;-83
2023/09/10 14:09:06;;;;;;;;;;;27.30;99.90;;;;;;15597434;22;19930;-82
2023/09/10 14:15:08;;;;;;;;;;;27.20;99.90;;;;;;15592877;22;20252;-83
2023/09/10 14:21:10;;;;;;;;;;;27.40;99.90;;;;;;15600695;22;19923;-83
2023/09/10 14:27:12;;;;;;;;;;;27.40;99.90;;;;;;15594150;22;20171;-83
2023/09/10 14:33:15;;;;;;;;;;;27.30;99.90;;;;;;15588138;22;20045;-83
2023/09/10 14:39:17;;;;;;;;;;;27.20;99.90;;;;;;15593881;22;19934;-85
2023/09/10 14:45:18;;;;;;;;;;;27.30;99.90;;;;;;15600921;22;20391;-84
2023/09/10 14:51:20;;;;;;;;;;;27.60;99.90;;;;;;15596624;22;19923;-83
2023/09/10 14:57:23;;;;;;;;;;;27.40;99.90;;;;;;15616809;22;20347;-83
2023/09/10 15:03:25;;;;;;;;;;;27.60;99.90;;;;;;15595171;22;19949;-83
2023/09/10 15:09:28;;;;;;;;;;;27.90;99.90;;;;;;15593349;22;20362;-83
2023/09/10 15:15:34;;;;;;;;;;;28.00;99.90;;;;;;15599841;22;19927;-83
2023/09/10 15:21:35;;;;;;;;;;;27.90;99.90;;;;;;15601926;22;19922;-84
2023/09/10 15:27:38;;;;;;;;;;;27.80;99.90;;;;;;15597759;22;19929;-84
2023/09/10 15:33:41;;;;;;;;;;;27.60;99.90;;;;;;15610143;22;19965;-84
2023/09/10 15:39:43;;;;;;;;;;;27.50;99.90;;;;;;15657728;22;19937;-85
2023/09/10 15:45:45;;;;;;;;;;;27.70;99.90;;;;;;15663822;22;19919;-85
2023/09/10 15:51:49;;;;;;;;;;;27.70;99.90;;;;;;15652311;22;20030;-85
2023/09/10 15:57:51;;;;;;;;;;;27.90;99.90;;;;;;15589299;22;19926;-86
2023/09/10 16:03:53;;;;;;;;;;;28.00;99.90;;;;;;15600711;22;19923;-85
2023/09/10 16:09:55;;;;;;;;;;;27.70;99.90;;;;;;15603050;22;19929;-85
2023/09/10 16:15:58;;;;;;;;;;;28.10;99.90;;;;;;15598767;22;19942;-85
2023/09/10 16:22:00;;;;;;;;;;;28.10;99.90;;;;;;15581762;22;19946;-85
2023/09/10 16:28:03;;;;;;;;;;;28.10;99.90;;;;;;15599515;22;19927;-85
2023/09/10 16:34:06;;;;;;;;;;;28.10;99.90;;;;;;15589736;22;19945;-85
2023/09/10 16:40:08;;;;;;;;;;;28.00;99.90;;;;;;15604267;22;19946;-85
2023/09/10 16:46:10;;;;;;;;;;;27.90;99.90;;;;;;15603261;22;20294;-85
2023/09/10 16:52:12;;;;;;;;;;;27.80;99.90;;;;;;15601546;22;19970;-85
2023/09/10 16:58:14;;;;;;;;;;;27.60;99.90;;;;;;15576916;22;20320;-85
2023/09/10 17:04:15;;;;;;;;;;;27.40;99.90;;;;;;15623199;22;19923;-85
2023/09/10 17:10:17;;;;;;;;;;;27.10;99.90;;;;;;15590917;22;19923;-85
2023/09/10 17:16:20;;;;;;;;;;;26.70;99.90;;;;;;15590340;22;20264;-84
2023/09/10 17:22:23;;;;;;;;;;;26.30;99.90;;;;;;15623326;22;19922;-83
2023/09/10 17:28:25;;;;;;;;;;;25.80;99.90;;;;;;15623388;22;19927;-83
2023/09/10 17:34:30;;;;;;;;;;;25.10;99.90;;;;;;15599436;22;19954;-83
2023/09/10 17:40:32;;;;;;;;;;;24.80;99.90;;;;;;15630047;22;19927;-83
2023/09/10 17:46:34;;;;;;;;;;;24.70;99.90;;;;;;15602642;22;19923;-83
2023/09/10 17:52:36;;;;;;;;;;;24.50;99.90;;;;;;15597810;22;19919;-83
2023/09/10 17:58:38;;;;;;;;;;;24.20;99.90;;;;;;15597781;22;19933;-83
2023/09/10 18:04:40;;;;;;;;;;;23.80;99.90;;;;;;15617309;22;19922;-82
2023/09/10 18:10:42;;;;;;;;;;;23.70;99.90;;;;;;15597102;22;19927;-83
2023/09/10 18:16:44;;;;;;;;;;;23.50;99.90;;;;;;15601282;22;20324;-82
2023/09/10 18:22:46;;;;;;;;;;;23.20;99.90;;;;;;15628185;22;20002;-83
2023/09/10 18:28:48;;;;;;;;;;;23.10;99.90;;;;;;15607786;22;20064;-83
2023/09/10 18:34:50;;;;;;;;;;;22.90;99.90;;;;;;15550730;22;19927;-82
2023/09/10 18:40:52;;;;;;;;;;;22.80;99.90;;;;;;15552273;22;19923;-82
2023/09/10 18:46:55;;;;;;;;;;;22.70;99.90;;;;;;15558699;22;20008;-82
2023/09/10 18:52:56;;;;;;;;;;;22.60;99.90;;;;;;15556341;22;20001;-82
2023/09/10 18:58:58;;;;;;;;;;;22.60;99.90;;;;;;15554801;22;19923;-82
2023/09/10 19:05:00;;;;;;;;;;;22.50;99.90;;;;;;15556913;22;19929;-82
2023/09/10 19:11:02;;;;;;;;;;;22.40;99.90;;;;;;15557317;22;19933;-82
2023/09/10 19:17:04;;;;;;;;;;;22.40;99.90;;;;;;15554676;22;19926;-82
2023/09/10 19:23:07;;;;;;;;;;;22.40;99.90;;;;;;15557735;22;19946;-82
2023/09/10 19:29:09;;;;;;;;;;;22.10;99.90;;;;;;15571419;22;19931;-82
2023/09/10 19:35:11;;;;;;;;;;;21.90;99.90;;;;;;15616765;22;19930;-81
2023/09/10 19:41:13;;;;;;;;;;;22.10;99.90;;;;;;15612519;22;19929;-83
2023/09/10 19:47:14;;;;;;;;;;;22.10;99.90;;;;;;15611439;22;19938;-82
2023/09/10 19:53:16;;;;;;;;;;;22.00;99.90;;;;;;15634918;22;20244;-81
2023/09/10 19:59:18;;;;;;;;;;;21.90;99.90;;;;;;15609109;22;19923;-81
2023/09/10 20:05:20;;;;;;;;;;;21.80;99.90;;;;;;15591308;22;19923;-80
2023/09/10 20:11:22;;;;;;;;;;;21.80;99.90;;;;;;15655488;22;19926;-81
2023/09/10 20:17:25;;;;;;;;;;;21.60;99.90;;;;;;15637889;22;19980;-81
2023/09/10 20:23:27;;;;;;;;;;;21.60;99.90;;;;;;15657806;22;19930;-81
2023/09/10 20:29:29;;;;;;;;;;;21.60;99.90;;;;;;15617818;22;19930;-81
2023/09/10 20:35:31;;;;;;;;;;;21.70;99.90;;;;;;15632442;22;19933;-82
2023/09/10 20:41:35;;;;;;;;;;;21.70;99.90;;;;;;15612623;22;20288;-81
2023/09/10 20:47:37;;;;;;;;;;;21.60;99.90;;;;;;15616704;22;19945;-81
2023/09/10 20:53:39;;;;;;;;;;;21.60;99.90;;;;;;15612805;22;20359;-81
2023/09/10 20:59:41;;;;;;;;;;;21.50;99.90;;;;;;15610779;22;20415;-81
2023/09/10 21:05:43;;;;;;;;;;;21.40;99.90;;;;;;15632884;22;19927;-81
2023/09/10 21:11:46;;;;;;;;;;;21.20;99.90;;;;;;15596618;22;19930;-82
2023/09/10 21:17:47;;;;;;;;;;;21.30;99.90;;;;;;15600063;22;19926;-81
2023/09/10 21:23:49;;;;;;;;;;;21.30;99.90;;;;;;15637337;22;19922;-82
2023/09/10 21:29:52;;;;;;;;;;;21.20;99.90;;;;;;15601130;22;19918;-82
2023/09/10 21:35:54;;;;;;;;;;;20.90;99.90;;;;;;15605891;22;19919;-82
2023/09/10 21:41:56;;;;;;;;;;;20.90;99.90;;;;;;15604075;22;19929;-82
2023/09/10 21:47:58;;;;;;;;;;;21.10;99.90;;;;;;15628282;22;19930;-82
2023/09/10 21:54:00;;;;;;;;;;;21.20;99.90;;;;;;15603703;22;20269;-82
2023/09/10 22:00:06;;;;;;;;;;;21.10;99.90;;;;;;15607614;22;19923;-82
2023/09/10 22:06:09;;;;;;;;;;;21.10;99.90;;;;;;15596553;22;19923;-82
2023/09/10 22:12:11;;;;;;;;;;;21.30;99.90;;;;;;15612814;22;20005;-82
2023/09/10 22:18:13;;;;;;;;;;;21.30;99.90;;;;;;15606438;22;20269;-82
2023/09/10 22:24:15;;;;;;;;;;;21.30;99.90;;;;;;15626469;22;19976;-82
2023/09/10 22:30:16;;;;;;;;;;;21.30;99.90;;;;;;15629412;22;19923;-82
2023/09/10 22:36:18;;;;;;;;;;;21.20;99.90;;;;;;15627693;22;20636;-82
2023/09/10 22:42:38;;;;;;;;;;;21.30;99.90;;;;;;15617083;22;20420;-82
2023/09/10 22:48:40;;;;;;;;;;;21.10;99.90;;;;;;15627930;22;19923;-79
2023/09/10 22:54:42;;;;;;;;;;;20.70;99.90;;;;;;15609971;22;19923;-80
2023/09/10 23:00:44;;;;;;;;;;;20.70;99.90;;;;;;15609631;22;19927;-80
2023/09/10 23:06:46;;;;;;;;;;;20.60;99.90;;;;;;15603492;22;20616;-80
2023/09/10 23:12:52;;;;;;;;;;;20.60;99.90;;;;;;15603686;22;19926;-81
2023/09/10 23:18:53;;;;;;;;;;;20.70;99.90;;;;;;15594645;22;19926;-81
2023/09/10 23:24:56;;;;;;;;;;;20.70;99.90;;;;;;15600424;22;19919;-81
2023/09/10 23:30:58;;;;;;;;;;;20.70;99.90;;;;;;15604281;22;19925;-82
2023/09/10 23:36:59;;;;;;;;;;;20.70;99.90;;;;;;15601442;22;19919;-82
2023/09/10 23:43:01;;;;;;;;;;;20.60;99.90;;;;;;15614120;22;19922;-82
2023/09/10 23:49:03;;;;;;;;;;;20.50;99.90;;;;;;15607487;22;19923;-82
2023/09/10 23:55:05;;;;;;;;;;;20.50;99.90;;;;;;15601432;22;19985;-82
